Slippery Rock, Pennsylvania
Current Conditions -  °F | °C
As of 4:15 AM on Thursday 23 Oct 2014 (Local Time) from KBTP Reporting Station
Broken Clouds Broken Clouds  
Wind Chill: 41°   Ceiling: 2300
Heat Index: 41°   Visibility: 10mi
Dew Point: 37°   Wind: 3mph
Humidity: 87%   Direction: 280°W
Pressure: 30.13"   Gusts: NA
Location:  41.06°N, 80.06°W
Report Text: KBTP 230815Z AUTO 28003KT 10SM FEW017 BKN023 05/03 A3013 RMK AO1
Loading
Personal Weather Stations






























Interactive Weather Map
Tropical Storm Tracking
New forecast layout! Learn more

10-Day Weather Forecast

Advertisements
Track Severe Weather on mobile